createdAt,value
2022-11-19T00:20:40.639Z,91.09
2022-11-19T00:49:15.441Z,91.06
2022-11-19T01:17:47.569Z,90.65
2022-11-19T01:46:25.143Z,90.46
2022-11-19T02:15:01.413Z,89.62
2022-11-19T02:43:33.038Z,89.3
2022-11-19T03:12:10.342Z,91.25
2022-11-19T03:40:54.936Z,92.37
2022-11-19T04:09:24.997Z,92.33
2022-11-19T04:38:07.445Z,92.59
2022-11-19T05:06:45.082Z,92.21
2022-11-19T05:35:19.728Z,92.11
2022-11-19T06:03:39.886Z,92.2
2022-11-19T06:32:05.346Z,92.53
2022-11-19T07:00:43.405Z,92.18
2022-11-19T07:29:14.828Z,93.49
2022-11-19T07:57:51.373Z,93.97
2022-11-19T08:26:33.754Z,93.47
2022-11-19T08:55:18.905Z,91.65
2022-11-19T09:23:50.175Z,90.35
2022-11-19T09:52:14.053Z,86.82
2022-11-19T10:20:47.737Z,83.9
2022-11-19T10:49:15.344Z,83.79
2022-11-19T11:17:51.362Z,84.87
2022-11-19T11:46:14.351Z,86.38
2022-11-19T12:14:42.543Z,87.04
2022-11-19T12:43:17.952Z,85.31
2022-11-19T13:11:48.232Z,85.25
2022-11-19T13:40:17.812Z,83
2022-11-19T14:08:36.131Z,81.88
2022-11-19T15:05:41.083Z,79.09
2022-11-19T16:30:45.994Z,84.42
2022-11-19T17:28:38.222Z,84.37
2022-11-19T17:57:29.997Z,84.23
2022-11-19T18:25:52.738Z,84.1
2022-11-19T19:51:08.026Z,84.78
2022-11-19T20:19:37.315Z,83.73
2022-11-19T20:48:25.649Z,83.88
2022-11-19T21:16:44.550Z,83.84
2022-11-19T21:45:30.964Z,83.89
2022-11-19T23:11:26.559Z,85.22
2022-11-19T23:39:59.681Z,84.11
